21D

Lake Elmo Airport

St Paul, Minnesota, USA
METAR K21D 181255Z AUTO 01005KT 10SM OVC007 20/19 A2996 RMK AO2
Observed Flight Rules
Jun-18 @ 12:55 UTC (27 minutes ago) Instrument Flight Rules
Wind Visibility Clouds
10° at 5 knots 10 miles
  • Overcast at 700' AGL
Temperatures Readings
Current 20°C / 68°F
Dewpoint 19°C / 66°F
Humidity 94%
Altimeter 29.96" Hg
Pressure 1015 hPa
Elevation 285
METAR K21D 181255Z AUTO 01005KT 10SM OVC007 20/19 A2996 RMK AO2
Observed Flight Rules
Jun-18 @ 12:55 UTC
(27 minutes ago)
IFR
Wind Visibility
10° at 5 knots 10 miles
Clouds
  • Overcast at 700' AGL
Temperature Dewpoint
20°C / 68°F 19°C / 66°F
Humidity Altimeter Pressure
94% 29.96" Hg 1015 hPa